Akvile — LYJM — position and weather

sailwx.info

Track history (hours):
 
Tides and Currents Weather Stations Pressure Air Temp Water Temp Dewpoint Dewpoint Depression Visibility Wind Speed Wind Dir Waves Ship Positions

Akvile

Last reported at 2015-May-13 08:04 UTC. Time now 2015-May-26 03:41 UTC.
Position N 36°48' E 005°14'.
Warning: this ship's position is 12 days out of date.

Length 103 m; draft 6.5 m.

Type: Ship. MMSI: 277073000.

Date/timePositionNaut miles runAvg speedWind from/ knotsBaromVisibWave heightAir tempDewpointWater temp
2015-May-13 08:04N 36°48' E 005°14'610.7
2015-May-13 07:33N 36°50' E 005°20'13610.1
2015-May-12 18:06N 37°29' E 008°04'710.5
2015-May-12 17:28N 37°30' E 008°12'1010.7
2015-May-12 16:33N 37°32' E 008°24'1110.9
2015-May-12 15:31N 37°34' E 008°38'1110.9
2015-May-12 14:32N 37°36' E 008°51'1010.5
2015-May-12 13:33N 37°37' E 009°04'1010.3
2015-May-12 12:33N 37°37' E 009°17'60 9.8
2015-May-12 06:27N 37°35' E 010°33'9 9.8
2015-May-12 05:31N 37°33' E 010°44'11 9.9
2015-May-12 04:26N 37°30' E 010°57'1010.1
2015-May-12 03:25N 37°28' E 011°10'4510.8
2015-May-11 23:16N 37°09' E 012°01'810.9
2015-May-11 22:34N 37°07' E 012°10'5210.3
2015-May-11 17:32N 36°55' E 013°13'10 9.8
2015-May-11 16:33N 36°52' E 013°25'9 9.3
2015-May-11 15:33N 36°50' E 013°36'9 8.8
2015-May-11 14:33N 36°48' E 013°46'9 9.2
2015-May-11 13:33N 36°46' E 013°58'1010.0
2015-May-11 12:34N 36°44' E 014°10'1010.1
2015-May-11 11:33N 36°41' E 014°22'10 9.9
2015-May-11 10:34N 36°38' E 014°34'1010.2
2015-May-11 09:33N 36°35' E 014°46'26410.5
2015-May-10 08:29N 39°50' E 018°34'  
Track history (hours):
 
Tides and Currents Weather Stations Pressure Air Temp Water Temp Dewpoint Dewpoint Depression Visibility Wind Speed Wind Dir Waves Ship Positions

Akvile

Last reported at 2015-May-13 08:04 UTC. Time now 2015-May-26 03:41 UTC.
Position N 36°48' E 005°14'.
Warning: this ship's position is 12 days out of date.

Length 103 m; draft 6.5 m.

Type: Ship. MMSI: 277073000.

Date/timePositionNaut miles runAvg speedWind from/ knotsBaromVisibWave heightAir tempDewpointWater temp
2015-May-13 08:04N 36°48' E 005°14'610.7
2015-May-13 07:33N 36°50' E 005°20'13610.1
2015-May-12 18:06N 37°29' E 008°04'710.5
2015-May-12 17:28N 37°30' E 008°12'1010.7
2015-May-12 16:33N 37°32' E 008°24'1110.9
2015-May-12 15:31N 37°34' E 008°38'1110.9
2015-May-12 14:32N 37°36' E 008°51'1010.5
2015-May-12 13:33N 37°37' E 009°04'1010.3
2015-May-12 12:33N 37°37' E 009°17'60 9.8
2015-May-12 06:27N 37°35' E 010°33'9 9.8
2015-May-12 05:31N 37°33' E 010°44'11 9.9
2015-May-12 04:26N 37°30' E 010°57'1010.1
2015-May-12 03:25N 37°28' E 011°10'4510.8
2015-May-11 23:16N 37°09' E 012°01'810.9
2015-May-11 22:34N 37°07' E 012°10'5210.3
2015-May-11 17:32N 36°55' E 013°13'10 9.8
2015-May-11 16:33N 36°52' E 013°25'9 9.3
2015-May-11 15:33N 36°50' E 013°36'9 8.8
2015-May-11 14:33N 36°48' E 013°46'9 9.2
2015-May-11 13:33N 36°46' E 013°58'1010.0
2015-May-11 12:34N 36°44' E 014°10'1010.1
2015-May-11 11:33N 36°41' E 014°22'10 9.9
2015-May-11 10:34N 36°38' E 014°34'1010.2
2015-May-11 09:33N 36°35' E 014°46'26410.5
2015-May-10 08:29N 39°50' E 018°34'  

Dump ship's entire track history